Time;durP1;ratioP1;P1;durP2;ratioP2;P2;SDS_P1;SDS_P2;PMS_P1;PMS_P2;Temp;Humidity;BMP_temperature;BMP_pressure;BME280_temperature;BME280_humidity;BME280_pressure;Samples;Min_cycle;Max_cycle;Signal;HPM_P1;HPM_P2
2021/03/31 00:00:01;;;;;;;23.23;11.93;;;;;;;;;;10333333;28;20152;-63
2021/03/31 00:04:58;;;;;;;25.23;12.68;;;;;;;;;;10327147;28;20041;-64
2021/03/31 00:09:55;;;;;;;20.27;9.13;;;;;;;;;;10305285;28;20060;-65
2021/03/31 00:14:53;;;;;;;23.30;12.73;;;;;;;;;;10335983;28;20037;-65
2021/03/31 00:19:50;;;;;;;27.27;13.23;;;;;;;;;;10316125;28;20049;-64
2021/03/31 00:24:48;;;;;;;25.93;12.83;;;;;;;;;;10326701;28;20037;-65
2021/03/31 00:29:48;;;;;;;30.93;13.77;;;;;;;;;;10327103;28;20033;-65
2021/03/31 00:34:45;;;;;;;34.65;16.52;;;;;;;;;;10310177;28;20032;-64
2021/03/31 00:39:43;;;;;;;30.43;15.37;;;;;;;;;;10310202;28;20037;-64
2021/03/31 00:44:40;;;;;;;27.33;13.33;;;;;;;;;;10334074;28;20040;-65
2021/03/31 00:49:37;;;;;;;31.23;13.50;;;;;;;;;;10330202;28;20051;-65
2021/03/31 00:54:35;;;;;;;23.83;11.93;;;;;;;;;;10330953;28;20120;-66
2021/03/31 00:59:33;;;;;;;16.10;8.20;;;;;;;;;;10315131;28;20060;-65
2021/03/31 01:04:30;;;;;;;16.70;7.70;;;;;;;;;;10316735;28;20041;-64
2021/03/31 01:09:28;;;;;;;11.23;6.40;;;;;;;;;;10328912;28;20132;-65
2021/03/31 01:14:40;;;;;;;15.27;6.37;;;;;;;;;;10329135;28;20640;-64
2021/03/31 01:19:51;;;;;;;17.30;8.77;;;;;;;;;;10316735;22;20499;-64
2021/03/31 01:25:06;;;;;;;16.15;7.00;;;;;;;;;;10274630;28;20033;-64
2021/03/31 01:30:10;;;;;;;19.40;9.85;;;;;;;;;;10265441;28;20069;-65
2021/03/31 01:35:08;;;;;;;28.52;12.45;;;;;;;;;;10281219;28;20588;-64
2021/03/31 01:40:08;;;;;;;25.00;13.10;;;;;;;;;;10283173;28;20094;-65
2021/03/31 01:45:06;;;;;;;36.72;16.65;;;;;;;;;;10269275;28;20037;-64
2021/03/31 01:55:11;;;;;;;39.40;16.80;;;;;;;;;;10241315;22;20610;-65
2021/03/31 02:00:11;;;;;;;38.13;18.10;;;;;;;;;;10266740;28;20049;-65
2021/03/31 02:05:12;;;;;;;31.48;15.75;;;;;;;;;;10301241;28;20499;-66
2021/03/31 02:10:11;;;;;;;29.80;14.07;;;;;;;;;;10328478;28;20547;-66
2021/03/31 02:15:09;;;;;;;33.58;14.25;;;;;;;;;;10332617;28;20032;-66
2021/03/31 02:20:08;;;;;;;21.85;11.05;;;;;;;;;;10302599;28;20048;-66
2021/03/31 02:25:05;;;;;;;20.08;10.32;;;;;;;;;;10297294;28;20037;-65
2021/03/31 02:30:04;;;;;;;19.40;9.93;;;;;;;;;;10298338;23;20049;-63
2021/03/31 02:35:01;;;;;;;;;;;;;;;;;;10308755;28;20072;-63
2021/03/31 02:39:59;;;;;;;17.02;8.02;;;;;;;;;;10314683;28;20348;-64
2021/03/31 02:44:57;;;;;;;8.23;5.38;;;;;;;;;;10316668;28;20068;-63
2021/03/31 02:49:58;;;;;;;11.07;6.97;;;;;;;;;;10318565;28;20044;-64
2021/03/31 02:54:56;;;;;;;34.00;12.75;;;;;;;;;;10312825;28;20029;-62
2021/03/31 02:59:53;;;;;;;23.10;11.38;;;;;;;;;;10306111;28;20037;-64
2021/03/31 03:04:51;;;;;;;28.23;13.27;;;;;;;;;;10316889;28;20033;-65
2021/03/31 03:09:49;;;;;;;36.37;16.20;;;;;;;;;;10316631;28;20102;-66
2021/03/31 03:14:48;;;;;;;30.37;13.63;;;;;;;;;;10293437;28;20193;-65
2021/03/31 03:19:46;;;;;;;31.35;14.95;;;;;;;;;;10316570;28;20041;-63
2021/03/31 03:24:45;;;;;;;35.70;17.07;;;;;;;;;;10311221;28;20689;-65
2021/03/31 03:29:45;;;;;;;33.92;13.80;;;;;;;;;;10323048;28;20040;-66
2021/03/31 03:34:43;;;;;;;29.35;14.50;;;;;;;;;;10340385;28;20033;-65
2021/03/31 03:39:41;;;;;;;31.02;14.15;;;;;;;;;;10338497;28;20044;-66
2021/03/31 03:44:38;;;;;;;31.83;14.03;;;;;;;;;;10330649;28;20132;-65
2021/03/31 03:49:36;;;;;;;28.73;13.30;;;;;;;;;;10322452;28;20053;-66
2021/03/31 03:54:34;;;;;;;27.42;12.48;;;;;;;;;;10323728;28;20163;-64
2021/03/31 03:59:34;;;;;;;25.53;9.57;;;;;;;;;;10317377;28;20179;-64
2021/03/31 04:04:31;;;;;;;24.95;10.57;;;;;;;;;;10321462;28;20073;-64
2021/03/31 04:09:29;;;;;;;21.17;9.30;;;;;;;;;;10309498;28;20417;-65
2021/03/31 04:14:26;;;;;;;15.90;9.03;;;;;;;;;;10307045;28;20037;-64
2021/03/31 04:19:24;;;;;;;27.67;12.47;;;;;;;;;;10320330;22;20800;-64
2021/03/31 04:24:21;;;;;;;27.83;11.07;;;;;;;;;;10279507;28;20030;-63
2021/03/31 04:29:19;;;;;;;27.93;14.73;;;;;;;;;;10280080;28;20044;-64
2021/03/31 04:34:17;;;;;;;24.60;12.10;;;;;;;;;;10289472;23;20136;-65
2021/03/31 04:39:15;;;;;;;25.02;11.90;;;;;;;;;;10288381;28;20726;-65
2021/03/31 04:44:12;;;;;;;23.67;11.27;;;;;;;;;;10276057;28;20040;-65
2021/03/31 04:49:10;;;;;;;15.83;8.60;;;;;;;;;;10309073;28;20072;-65
2021/03/31 04:54:07;;;;;;;13.07;7.43;;;;;;;;;;10307122;23;20075;-65
2021/03/31 04:59:05;;;;;;;31.07;12.03;;;;;;;;;;10346060;28;20437;-64
2021/03/31 05:04:02;;;;;;;26.53;11.13;;;;;;;;;;10348303;28;20550;-63
2021/03/31 05:09:00;;;;;;;37.87;15.87;;;;;;;;;;10362014;22;20056;-68
2021/03/31 05:13:57;;;;;;;30.00;14.30;;;;;;;;;;10311105;28;20029;-66
2021/03/31 05:18:54;;;;;;;31.80;16.00;;;;;;;;;;10291372;28;20029;-68
2021/03/31 05:23:52;;;;;;;42.37;16.83;;;;;;;;;;10304451;28;20098;-67
2021/03/31 05:28:49;;;;;;;34.80;16.33;;;;;;;;;;10267939;28;20051;-67
2021/03/31 05:33:47;;;;;;;36.47;13.53;;;;;;;;;;10309835;28;20037;-67
2021/03/31 05:38:44;;;;;;;25.67;11.70;;;;;;;;;;10265439;28;20050;-66
2021/03/31 05:43:42;;;;;;;37.60;17.23;;;;;;;;;;10292237;22;20705;-68
2021/03/31 05:48:39;;;;;;;29.30;14.00;;;;;;;;;;10358202;28;20546;-67
2021/03/31 05:53:37;;;;;;;34.13;16.13;;;;;;;;;;10339489;28;20060;-65
2021/03/31 05:58:36;;;;;;;7.70;5.30;;;;;;;;;;10358311;28;20548;-66
2021/03/31 06:03:33;;;;;;;12.15;6.60;;;;;;;;;;10361145;28;20079;-66
2021/03/31 06:08:31;;;;;;;11.33;5.90;;;;;;;;;;10362180;28;20494;-66
2021/03/31 06:13:47;;;;;;;18.07;8.37;;;;;;;;;;10368409;28;20062;-66
2021/03/31 06:18:45;;;;;;;20.52;8.77;;;;;;;;;;10292974;22;20285;-65
2021/03/31 06:29:07;;;;;;;14.90;8.13;;;;;;;;;;10292893;28;20550;-67
2021/03/31 06:34:11;;;;;;;21.73;8.25;;;;;;;;;;10285097;28;20033;-66
2021/03/31 06:39:21;;;;;;;21.95;9.73;;;;;;;;;;10298887;28;20095;-65
2021/03/31 06:44:35;;;;;;;21.75;10.27;;;;;;;;;;10295349;28;20592;-67
2021/03/31 06:49:32;;;;;;;15.73;8.93;;;;;;;;;;10320040;28;20914;-64
2021/03/31 06:54:39;;;;;;;24.17;10.20;;;;;;;;;;10326341;28;20037;-65
2021/03/31 06:59:36;;;;;;;16.05;8.52;;;;;;;;;;10328440;28;20040;-64
2021/03/31 07:04:34;;;;;;;19.93;9.80;;;;;;;;;;10320098;28;20041;-64
2021/03/31 07:09:31;;;;;;;19.87;9.80;;;;;;;;;;10331707;28;20045;-66
2021/03/31 07:14:29;;;;;;;26.27;11.27;;;;;;;;;;10333951;28;20033;-66
2021/03/31 07:19:27;;;;;;;19.83;10.93;;;;;;;;;;10334959;28;20655;-65
2021/03/31 07:24:24;;;;;;;24.20;11.43;;;;;;;;;;10331807;28;20361;-66
2021/03/31 07:29:23;;;;;;;23.37;11.57;;;;;;;;;;10312093;22;22350;-68
2021/03/31 07:34:27;;;;;;;27.23;11.57;;;;;;;;;;10275176;28;20034;-67
2021/03/31 07:39:27;;;;;;;20.90;10.85;;;;;;;;;;10293118;28;20033;-67
2021/03/31 07:44:27;;;;;;;27.05;11.35;;;;;;;;;;10288987;28;20030;-66
2021/03/31 07:49:25;;;;;;;25.00;11.55;;;;;;;;;;10295321;28;20139;-67
2021/03/31 07:54:22;;;;;;;23.23;11.88;;;;;;;;;;10275421;28;20064;-66
2021/03/31 07:59:20;;;;;;;23.20;10.60;;;;;;;;;;10284846;28;20026;-67
2021/03/31 08:04:19;;;;;;;24.27;10.57;;;;;;;;;;10231926;23;20048;-67
2021/03/31 08:09:27;;;;;;;19.83;10.52;;;;;;;;;;10251375;28;20044;-68
2021/03/31 08:14:27;;;;;;;18.63;9.87;;;;;;;;;;10313475;28;20048;-67
2021/03/31 08:19:29;;;;;;;25.27;11.15;;;;;;;;;;10343550;28;20037;-68
2021/03/31 08:24:46;;;;;;;21.83;10.05;;;;;;;;;;10352386;28;20033;-66
2021/03/31 08:29:46;;;;;;;24.23;10.57;;;;;;;;;;10338502;28;20652;-67
2021/03/31 08:34:44;;;;;;;22.02;9.95;;;;;;;;;;10345945;28;20525;-66
2021/03/31 08:39:41;;;;;;;18.95;8.32;;;;;;;;;;10280058;23;20111;-65
2021/03/31 08:44:41;;;;;;;23.27;9.70;;;;;;;;;;10272728;28;20095;-65
2021/03/31 08:49:39;;;;;;;11.65;6.78;;;;;;;;;;10277007;28;20045;-63
2021/03/31 08:54:45;;;;;;;14.55;6.28;;;;;;;;;;10286246;28;20041;-65
2021/03/31 08:59:47;;;;;;;12.25;5.03;;;;;;;;;;10284832;28;20060;-60
2021/03/31 09:04:45;;;;;;;13.07;6.70;;;;;;;;;;10280384;28;20380;-65
2021/03/31 09:09:43;;;;;;;12.93;5.90;;;;;;;;;;10283340;28;20049;-62
2021/03/31 09:14:45;;;;;;;18.77;7.05;;;;;;;;;;10259031;28;20508;-62
2021/03/31 09:19:42;;;;;;;11.07;5.25;;;;;;;;;;10293221;28;20041;-62
2021/03/31 09:25:00;;;;;;;17.30;8.63;;;;;;;;;;10283167;28;20063;-63
2021/03/31 09:30:00;;;;;;;10.20;5.97;;;;;;;;;;10284013;28;20037;-62
2021/03/31 09:35:05;;;;;;;11.88;7.18;;;;;;;;;;10268019;28;20033;-63
2021/03/31 09:40:04;;;;;;;13.35;6.10;;;;;;;;;;10287536;28;20046;-63
2021/03/31 09:45:06;;;;;;;15.73;6.15;;;;;;;;;;10218744;28;20046;-63
2021/03/31 09:50:07;;;;;;;14.52;6.93;;;;;;;;;;10283321;28;20048;-63
2021/03/31 09:55:14;;;;;;;15.30;6.75;;;;;;;;;;10276228;28;20067;-64
2021/03/31 10:00:14;;;;;;;25.23;14.20;;;;;;;;;;10281130;28;20037;-63
2021/03/31 10:05:19;;;;;;;21.38;9.15;;;;;;;;;;10270923;28;20030;-64
2021/03/31 10:10:17;;;;;;;19.10;10.75;;;;;;;;;;10262953;28;20506;-64
2021/03/31 10:15:14;;;;;;;27.87;11.33;;;;;;;;;;10271069;28;20044;-64
2021/03/31 10:20:17;;;;;;;26.35;13.35;;;;;;;;;;10279834;28;20459;-64
2021/03/31 10:25:27;;;;;;;21.17;13.43;;;;;;;;;;10269767;28;20049;-65
2021/03/31 10:30:26;;;;;;;28.85;13.68;;;;;;;;;;10270143;28;20435;-63
2021/03/31 10:35:52;;;;;;;26.65;12.07;;;;;;;;;;10283311;28;20408;-64
2021/03/31 10:56:53;;;;;;;24.90;14.48;;;;;;;;;;10286678;28;20037;-65
2021/03/31 11:01:51;;;;;;;22.55;12.07;;;;;;;;;;10278872;28;20120;-64
2021/03/31 11:06:48;;;;;;;27.53;14.77;;;;;;;;;;10278152;28;20052;-64
2021/03/31 11:11:46;;;;;;;26.73;15.48;;;;;;;;;;10281877;28;20298;-64
2021/03/31 11:17:04;;;;;;;30.13;15.75;;;;;;;;;;10277342;28;20037;-63
2021/03/31 11:27:19;;;;;;;27.75;15.32;;;;;;;;;;10256780;28;20083;-63
2021/03/31 11:32:16;;;;;;;28.77;15.47;;;;;;;;;;10282445;28;20037;-64
2021/03/31 11:37:14;;;;;;;27.98;15.18;;;;;;;;;;10285443;28;20039;-64
2021/03/31 11:42:11;;;;;;;24.25;13.27;;;;;;;;;;10288373;28;20754;-64
2021/03/31 11:47:09;;;;;;;24.90;13.03;;;;;;;;;;10293459;28;20033;-64
2021/03/31 11:52:06;;;;;;;24.17;15.30;;;;;;;;;;10293046;28;20285;-63
2021/03/31 11:57:04;;;;;;;27.50;13.38;;;;;;;;;;10284213;28;20029;-64
2021/03/31 12:02:02;;;;;;;29.47;15.60;;;;;;;;;;10285344;28;20115;-64
2021/03/31 12:07:00;;;;;;;17.15;8.73;;;;;;;;;;10290224;28;20797;-64
2021/03/31 12:11:59;;;;;;;26.25;14.02;;;;;;;;;;10284895;28;20040;-65
2021/03/31 12:16:57;;;;;;;22.17;12.82;;;;;;;;;;10278543;28;20068;-65
2021/03/31 12:21:54;;;;;;;27.27;13.40;;;;;;;;;;10282193;28;20167;-66
2021/03/31 12:26:52;;;;;;;27.52;15.52;;;;;;;;;;10289754;28;20034;-65
2021/03/31 12:31:49;;;;;;;28.17;14.43;;;;;;;;;;10278931;28;20034;-65
2021/03/31 12:36:46;;;;;;;28.90;15.60;;;;;;;;;;10288142;28;20040;-64
2021/03/31 12:41:44;;;;;;;27.70;15.97;;;;;;;;;;10290499;28;20590;-65
2021/03/31 12:46:42;;;;;;;23.00;13.93;;;;;;;;;;10287531;28;20037;-65
2021/03/31 12:51:44;;;;;;;23.25;13.20;;;;;;;;;;10295250;28;20046;-65
2021/03/31 12:56:42;;;;;;;25.15;13.45;;;;;;;;;;10281241;28;20492;-65
2021/03/31 13:01:40;;;;;;;23.10;14.98;;;;;;;;;;10287373;28;20061;-65
2021/03/31 13:06:38;;;;;;;26.47;14.90;;;;;;;;;;10284653;28;20067;-65
2021/03/31 13:11:36;;;;;;;26.15;15.35;;;;;;;;;;10290361;28;20037;-65
2021/03/31 13:31:56;;;;;;;29.83;17.27;;;;;;;;;;10279903;28;20373;-64
2021/03/31 13:37:03;;;;;;;30.27;18.23;;;;;;;;;;10279319;28;20495;-65
2021/03/31 13:42:01;;;;;;;33.72;21.02;;;;;;;;;;10284866;28;20176;-65
2021/03/31 13:47:02;;;;;;;29.50;19.03;;;;;;;;;;10283465;28;20171;-65
2021/03/31 13:52:21;;;;;;;30.38;19.75;;;;;;;;;;10285676;28;20588;-65
2021/03/31 13:57:22;;;;;;;31.50;20.13;;;;;;;;;;10272761;28;20128;-64
2021/03/31 14:02:19;;;;;;;31.15;18.45;;;;;;;;;;10284131;28;20038;-65
2021/03/31 14:07:19;;;;;;;31.73;17.13;;;;;;;;;;10262920;28;20040;-65
2021/03/31 14:12:16;;;;;;;30.33;20.48;;;;;;;;;;10283267;28;20106;-65
2021/03/31 14:17:15;;;;;;;28.95;19.25;;;;;;;;;;10278846;28;20044;-65
2021/03/31 14:22:13;;;;;;;32.22;19.40;;;;;;;;;;10278978;28;20530;-65
2021/03/31 14:27:10;;;;;;;29.87;18.03;;;;;;;;;;10278199;28;20068;-66
2021/03/31 14:32:07;;;;;;;30.93;18.57;;;;;;;;;;10275940;28;20570;-64
2021/03/31 14:37:05;;;;;;;35.60;18.53;;;;;;;;;;10284016;28;20439;-65
2021/03/31 14:42:03;;;;;;;32.77;17.10;;;;;;;;;;10276760;28;20276;-65
2021/03/31 14:47:01;;;;;;;33.35;18.60;;;;;;;;;;10291563;28;20372;-64
2021/03/31 15:02:12;;;;;;;31.37;18.73;;;;;;;;;;10288512;28;20053;-65
2021/03/31 15:07:10;;;;;;;33.57;18.90;;;;;;;;;;10287127;28;20037;-65
2021/03/31 15:12:08;;;;;;;36.20;20.75;;;;;;;;;;10269343;28;20641;-65
2021/03/31 15:17:07;;;;;;;35.63;21.20;;;;;;;;;;10289322;28;20026;-65
2021/03/31 15:27:09;;;;;;;32.50;18.80;;;;;;;;;;10282895;28;20037;-64
2021/03/31 15:32:07;;;;;;;36.42;17.52;;;;;;;;;;10282825;28;20420;-64
2021/03/31 15:37:04;;;;;;;41.33;18.92;;;;;;;;;;10278671;28;20148;-65
2021/03/31 15:42:02;;;;;;;36.93;19.43;;;;;;;;;;10294491;28;20041;-65
2021/03/31 15:51:57;;;;;;;37.95;20.70;;;;;;;;;;10286347;28;20037;-64
2021/03/31 15:56:54;;;;;;;36.55;20.77;;;;;;;;;;10284718;28;20527;-64
2021/03/31 16:01:52;;;;;;;42.17;24.38;;;;;;;;;;10267797;28;20030;-65
2021/03/31 16:12:06;;;;;;;36.08;20.75;;;;;;;;;;10285937;28;20573;-65
2021/03/31 16:17:04;;;;;;;33.90;20.92;;;;;;;;;;10292426;28;20043;-64
2021/03/31 16:22:01;;;;;;;42.28;21.25;;;;;;;;;;10294873;28;20045;-65
2021/03/31 16:26:59;;;;;;;38.60;19.42;;;;;;;;;;10272467;28;20063;-65
2021/03/31 16:31:57;;;;;;;33.28;19.95;;;;;;;;;;10280044;28;20434;-64
2021/03/31 16:36:55;;;;;;;36.08;19.73;;;;;;;;;;10285951;28;20085;-64
2021/03/31 16:41:52;;;;;;;37.65;21.67;;;;;;;;;;10293060;28;20044;-63
2021/03/31 16:46:50;;;;;;;39.25;19.13;;;;;;;;;;10272428;28;20037;-62
2021/03/31 16:51:47;;;;;;;35.27;19.80;;;;;;;;;;10272496;28;20038;-64
2021/03/31 16:56:45;;;;;;;7.10;3.35;;;;;;;;;;10285900;28;20296;-63
2021/03/31 17:01:42;;;;;;;19.03;9.80;;;;;;;;;;10276787;28;20087;-63
2021/03/31 17:06:40;;;;;;;13.17;5.93;;;;;;;;;;10284482;28;20295;-61
2021/03/31 17:11:37;;;;;;;33.58;18.60;;;;;;;;;;10287140;28;20050;-63
2021/03/31 17:16:36;;;;;;;40.03;20.85;;;;;;;;;;10283328;28;20040;-62
2021/03/31 17:21:35;;;;;;;34.75;17.73;;;;;;;;;;10276674;28;20064;-65
2021/03/31 17:26:33;;;;;;;34.53;16.85;;;;;;;;;;10287065;28;20036;-63
2021/03/31 17:31:30;;;;;;;33.28;16.08;;;;;;;;;;10273931;28;20130;-63
2021/03/31 17:36:27;;;;;;;32.97;17.35;;;;;;;;;;10287176;28;20040;-63
2021/03/31 17:41:25;;;;;;;32.23;16.67;;;;;;;;;;10281912;28;20570;-62
2021/03/31 17:46:22;;;;;;;;;;;;;;;;;;10288298;28;20415;-63
2021/03/31 17:51:21;;;;;;;33.63;17.30;;;;;;;;;;10270616;28;19981;-65
2021/03/31 17:56:19;;;;;;;39.03;17.67;;;;;;;;;;10281906;28;20048;-64
2021/03/31 18:01:16;;;;;;;;;;;;;;;;;;10284488;28;20029;-63
2021/03/31 18:06:14;;;;;;;19.95;9.40;;;;;;;;;;10283116;28;20378;-63
2021/03/31 18:11:11;;;;;;;;;;;;;;;;;;10284624;28;20029;-64
2021/03/31 18:16:08;;;;;;;29.03;14.23;;;;;;;;;;10277446;28;19908;-61
2021/03/31 18:21:06;;;;;;;;;;;;;;;;;;10287974;28;20036;-62
2021/03/31 18:26:03;;;;;;;35.63;20.90;;;;;;;;;;10287249;28;19917;-63
2021/03/31 18:31:00;;;;;;;;;;;;;;;;;;10286101;28;20034;-61
2021/03/31 18:35:58;;;;;;;44.03;21.63;;;;;;;;;;10283669;28;20438;-62
2021/03/31 18:41:04;;;;;;;40.50;22.30;;;;;;;;;;10264691;28;20107;-63
2021/03/31 18:46:01;;;;;;;5.15;3.38;;;;;;;;;;10296365;28;20033;-63
2021/03/31 18:50:59;;;;;;;2.40;1.90;;;;;;;;;;10274764;28;20508;-64
2021/03/31 18:55:57;;;;;;;3.50;1.85;;;;;;;;;;10290339;28;20044;-64
2021/03/31 19:00:55;;;;;;;3.75;2.22;;;;;;;;;;10294788;28;20041;-62
2021/03/31 19:05:52;;;;;;;8.52;2.88;;;;;;;;;;10286712;28;20408;-62
2021/03/31 19:16:19;;;;;;;4.95;3.58;;;;;;;;;;10260580;28;20225;-62
2021/03/31 19:21:17;;;;;;;6.60;3.73;;;;;;;;;;10241835;28;20033;-62
2021/03/31 19:26:14;;;;;;;9.30;3.83;;;;;;;;;;10249576;28;20611;-64
2021/03/31 19:31:12;;;;;;;11.00;4.63;;;;;;;;;;10289299;28;20164;-64
2021/03/31 19:36:09;;;;;;;4.50;2.30;;;;;;;;;;10253129;28;20153;-62
2021/03/31 19:41:07;;;;;;;6.40;3.88;;;;;;;;;;10284683;28;20037;-65
2021/03/31 19:46:04;;;;;;;6.13;3.53;;;;;;;;;;10256592;28;20029;-63
2021/03/31 19:51:04;;;;;;;16.57;8.30;;;;;;;;;;10277678;28;20134;-63
2021/03/31 19:56:01;;;;;;;20.63;8.80;;;;;;;;;;10262564;28;20277;-62
2021/03/31 20:00:59;;;;;;;18.33;8.83;;;;;;;;;;10288803;28;20124;-62
2021/03/31 20:05:56;;;;;;;22.80;9.90;;;;;;;;;;10266154;28;20056;-64
2021/03/31 20:10:54;;;;;;;24.67;11.60;;;;;;;;;;10280523;28;20061;-62
2021/03/31 20:15:51;;;;;;;20.97;8.93;;;;;;;;;;10284454;28;20038;-63
2021/03/31 20:20:49;;;;;;;27.27;10.67;;;;;;;;;;10272763;28;21088;-63
2021/03/31 20:25:47;;;;;;;22.70;11.27;;;;;;;;;;10237627;28;20454;-64
2021/03/31 20:30:44;;;;;;;27.08;11.18;;;;;;;;;;10290701;28;20065;-61
2021/03/31 20:35:42;;;;;;;14.37;6.47;;;;;;;;;;10254421;28;20049;-64
2021/03/31 20:40:39;;;;;;;23.53;9.30;;;;;;;;;;10281097;28;20132;-62
2021/03/31 20:45:37;;;;;;;23.13;9.90;;;;;;;;;;10280473;28;20029;-62
2021/03/31 20:50:34;;;;;;;19.63;6.33;;;;;;;;;;10289228;28;20060;-63
2021/03/31 20:55:32;;;;;;;10.20;4.20;;;;;;;;;;10297968;28;20052;-63
2021/03/31 21:00:30;;;;;;;48.47;27.43;;;;;;;;;;10291554;28;20042;-64
2021/03/31 21:05:29;;;;;;;13.93;8.45;;;;;;;;;;10289400;28;20423;-62
2021/03/31 21:10:26;;;;;;;13.95;9.82;;;;;;;;;;10280524;28;20037;-61
2021/03/31 21:15:23;;;;;;;13.00;8.27;;;;;;;;;;10276169;28;20052;-60
2021/03/31 21:20:21;;;;;;;9.17;7.03;;;;;;;;;;10287720;28;20029;-61
2021/03/31 21:25:19;;;;;;;8.20;6.33;;;;;;;;;;10259203;28;20034;-63
2021/03/31 21:30:17;;;;;;;9.65;7.20;;;;;;;;;;10291367;28;20052;-66
2021/03/31 21:35:15;;;;;;;9.60;6.78;;;;;;;;;;10283685;28;20090;-65
2021/03/31 21:40:12;;;;;;;48.90;22.00;;;;;;;;;;10239799;28;20385;-62
2021/03/31 21:45:10;;;;;;;44.63;21.83;;;;;;;;;;10281258;28;20030;-63
2021/03/31 21:50:08;;;;;;;47.63;23.90;;;;;;;;;;10265660;28;20045;-64
2021/03/31 21:55:06;;;;;;;41.80;22.00;;;;;;;;;;10279808;28;20570;-64
2021/03/31 22:00:23;;;;;;;50.58;29.88;;;;;;;;;;10292979;28;20041;-64
2021/03/31 22:05:21;;;;;;;55.13;29.98;;;;;;;;;;10288176;28;20033;-63
2021/03/31 22:10:20;;;;;;;45.70;25.77;;;;;;;;;;10278682;28;20038;-64
2021/03/31 22:15:19;;;;;;;44.97;25.70;;;;;;;;;;10278904;28;20527;-65
2021/03/31 22:20:17;;;;;;;43.22;25.38;;;;;;;;;;10286910;28;20087;-64
2021/03/31 22:25:16;;;;;;;44.70;26.50;;;;;;;;;;10285563;28;20120;-64
2021/03/31 22:30:18;;;;;;;51.88;27.95;;;;;;;;;;10288142;28;20037;-63
2021/03/31 22:35:18;;;;;;;50.95;28.77;;;;;;;;;;10276657;28;20044;-64
2021/03/31 22:40:16;;;;;;;48.38;27.42;;;;;;;;;;10290125;28;20045;-64
2021/03/31 22:45:21;;;;;;;53.78;29.63;;;;;;;;;;10287915;28;20041;-63
2021/03/31 22:50:20;;;;;;;48.60;28.42;;;;;;;;;;10285342;28;20041;-64
2021/03/31 22:55:18;;;;;;;46.85;27.88;;;;;;;;;;10288945;28;20034;-65
2021/03/31 23:00:18;;;;;;;50.57;27.53;;;;;;;;;;10283801;28;20049;-63
2021/03/31 23:05:17;;;;;;;49.80;29.50;;;;;;;;;;10285901;28;20041;-64
2021/03/31 23:10:15;;;;;;;54.88;30.25;;;;;;;;;;10290772;28;20604;-62
2021/03/31 23:15:13;;;;;;;53.67;31.23;;;;;;;;;;10284461;28;21103;-64
2021/03/31 23:20:11;;;;;;;49.78;27.98;;;;;;;;;;10283048;28;20719;-64
2021/03/31 23:25:09;;;;;;;56.15;29.52;;;;;;;;;;10286584;28;20096;-64
2021/03/31 23:30:11;;;;;;;55.00;30.52;;;;;;;;;;10289352;28;20041;-65
2021/03/31 23:35:09;;;;;;;57.45;31.65;;;;;;;;;;10288162;28;20659;-64
2021/03/31 23:40:08;;;;;;;53.80;30.55;;;;;;;;;;10294075;28;20038;-64
2021/03/31 23:45:09;;;;;;;50.13;28.67;;;;;;;;;;10271550;28;20044;-64
2021/03/31 23:50:07;;;;;;;54.47;30.08;;;;;;;;;;10286516;28;20108;-64
2021/03/31 23:55:05;;;;;;;51.77;29.70;;;;;;;;;;10294487;28;20488;-65
